Time;durP1;ratioP1;P1;durP2;ratioP2;P2;SDS_P1;SDS_P2;PMS_P1;PMS_P2;Temp;Humidity;BMP_temperature;BMP_pressure;BME280_temperature;BME280_humidity;BME280_pressure;Samples;Min_cycle;Max_cycle;Signal;HPM_P1;HPM_P2
2022/04/22 00:02:00;;;;;;;1.70;1.42;;;;;;;;;;4952154;29;20067;-77
2022/04/22 00:04:26;;;;;;;1.80;1.50;;;;;;;;;;4967523;28;20031;-77
2022/04/22 00:06:52;;;;;;;1.73;1.60;;;;;;;;;;4936162;29;20112;-78
2022/04/22 00:09:17;;;;;;;1.98;1.40;;;;;;;;;;4923352;29;20109;-77
2022/04/22 00:11:43;;;;;;;1.90;1.30;;;;;;;;;;4939431;29;20102;-77
2022/04/22 00:14:08;;;;;;;1.88;1.63;;;;;;;;;;4939404;29;20106;-78
2022/04/22 00:16:34;;;;;;;2.03;1.80;;;;;;;;;;4939509;29;20126;-78
2022/04/22 00:19:00;;;;;;;2.28;1.70;;;;;;;;;;4955124;29;20070;-78
2022/04/22 00:21:26;;;;;;;1.90;1.50;;;;;;;;;;4955010;29;20049;-78
2022/04/22 00:23:52;;;;;;;1.90;1.73;;;;;;;;;;4955253;28;20083;-77
2022/04/22 00:26:17;;;;;;;2.03;1.63;;;;;;;;;;4939395;29;20027;-77
2022/04/22 00:28:43;;;;;;;2.25;1.60;;;;;;;;;;4939232;28;20383;-77
2022/04/22 00:31:08;;;;;;;2.05;1.50;;;;;;;;;;4954737;28;20038;-77
2022/04/22 00:33:35;;;;;;;2.42;1.50;;;;;;;;;;4938805;29;20118;-79
2022/04/22 00:36:00;;;;;;;1.60;1.50;;;;;;;;;;4954770;28;20128;-78
2022/04/22 00:38:26;;;;;;;1.98;1.52;;;;;;;;;;4954479;29;20441;-77
2022/04/22 00:40:55;;;;;;;2.28;1.65;;;;;;;;;;4954693;29;20042;-76
2022/04/22 00:43:22;;;;;;;3.28;1.92;;;;;;;;;;4970613;28;20174;-78
2022/04/22 00:45:48;;;;;;;2.15;1.85;;;;;;;;;;4954413;29;20283;-79
2022/04/22 00:48:15;;;;;;;3.20;1.90;;;;;;;;;;4954307;29;20454;-78
2022/04/22 00:50:41;;;;;;;2.38;1.70;;;;;;;;;;4954448;29;20053;-77
2022/04/22 00:53:07;;;;;;;2.25;1.75;;;;;;;;;;4954580;29;20462;-77
2022/04/22 00:55:35;;;;;;;3.45;2.05;;;;;;;;;;4938369;29;20392;-77
2022/04/22 00:58:01;;;;;;;3.53;1.70;;;;;;;;;;4938897;29;20035;-77
2022/04/22 01:00:26;;;;;;;3.10;2.03;;;;;;;;;;4954565;29;20023;-79
2022/04/22 01:02:52;;;;;;;2.13;1.67;;;;;;;;;;4970473;28;20031;-77
2022/04/22 01:10:45;;;;;;;3.33;2.15;;;;;;;;;;4954506;29;20117;-77
2022/04/22 01:13:11;;;;;;;4.05;1.67;;;;;;;;;;4937793;29;20059;-77
2022/04/22 01:15:36;;;;;;;3.58;1.70;;;;;;;;;;4953940;29;20035;-77
2022/04/22 01:18:02;;;;;;;1.60;1.42;;;;;;;;;;4938158;28;20122;-77
2022/04/22 01:20:28;;;;;;;2.95;1.77;;;;;;;;;;4937129;29;20125;-78
2022/04/22 01:22:53;;;;;;;2.22;1.92;;;;;;;;;;4938056;29;20126;-77
2022/04/22 01:25:19;;;;;;;2.05;1.73;;;;;;;;;;4955106;29;20090;-77
2022/04/22 01:27:45;;;;;;;2.70;1.55;;;;;;;;;;4955541;29;20123;-77
2022/04/22 01:30:11;;;;;;;1.58;1.48;;;;;;;;;;4953635;28;20051;-77
2022/04/22 01:32:37;;;;;;;3.15;1.40;;;;;;;;;;4955303;28;20062;-76
2022/04/22 01:35:03;;;;;;;2.58;1.77;;;;;;;;;;4953470;29;20027;-77
2022/04/22 01:37:29;;;;;;;2.63;1.80;;;;;;;;;;4953490;29;20035;-77
2022/04/22 01:39:54;;;;;;;2.38;1.60;;;;;;;;;;4953562;29;20344;-77
2022/04/22 01:42:20;;;;;;;1.83;1.60;;;;;;;;;;4953168;29;20476;-78
2022/04/22 01:44:46;;;;;;;1.92;1.50;;;;;;;;;;4937460;28;20058;-77
2022/04/22 01:47:11;;;;;;;1.70;1.58;;;;;;;;;;4953445;29;20044;-77
2022/04/22 01:49:37;;;;;;;1.85;1.50;;;;;;;;;;4937213;29;20035;-77
2022/04/22 01:52:02;;;;;;;1.60;1.45;;;;;;;;;;4953361;29;20039;-78
2022/04/22 01:54:28;;;;;;;2.67;1.67;;;;;;;;;;4953428;29;20034;-78
2022/04/22 01:56:53;;;;;;;2.08;1.55;;;;;;;;;;4953395;29;20070;-77
2022/04/22 01:59:18;;;;;;;1.85;1.58;;;;;;;;;;4953171;29;20126;-78
2022/04/22 02:01:44;;;;;;;1.67;1.52;;;;;;;;;;4953674;29;20062;-77
2022/04/22 02:04:09;;;;;;;2.88;1.55;;;;;;;;;;4953121;29;20090;-77
2022/04/22 02:06:34;;;;;;;2.15;1.80;;;;;;;;;;4954672;29;20042;-77
2022/04/22 02:09:00;;;;;;;2.05;1.80;;;;;;;;;;4953236;29;20398;-77
2022/04/22 02:11:25;;;;;;;1.92;1.63;;;;;;;;;;4937513;29;20127;-77
2022/04/22 02:13:51;;;;;;;1.90;1.50;;;;;;;;;;4952909;29;20134;-77
2022/04/22 02:16:16;;;;;;;2.75;1.70;;;;;;;;;;4952932;29;20486;-77
2022/04/22 02:18:42;;;;;;;3.33;1.75;;;;;;;;;;4954540;29;20035;-76
2022/04/22 02:21:09;;;;;;;2.20;1.65;;;;;;;;;;4937428;29;20046;-77
2022/04/22 02:23:35;;;;;;;1.92;1.70;;;;;;;;;;4952950;29;20027;-77
2022/04/22 02:26:02;;;;;;;1.90;1.70;;;;;;;;;;4952952;29;20034;-77
2022/04/22 02:28:31;;;;;;;1.83;1.70;;;;;;;;;;4968949;28;20090;-77
2022/04/22 02:30:57;;;;;;;3.72;1.77;;;;;;;;;;4952718;28;20038;-77
2022/04/22 02:33:22;;;;;;;2.20;1.50;;;;;;;;;;4952994;29;20043;-77
2022/04/22 02:35:48;;;;;;;3.38;1.90;;;;;;;;;;4968918;28;20351;-78
2022/04/22 02:38:13;;;;;;;3.53;1.73;;;;;;;;;;4952637;29;20079;-78
2022/04/22 02:46:06;;;;;;;2.97;1.70;;;;;;;;;;4952746;29;20082;-78
2022/04/22 02:48:32;;;;;;;5.22;1.90;;;;;;;;;;4952720;29;20469;-77
2022/04/22 02:50:57;;;;;;;2.30;2.00;;;;;;;;;;4954008;28;20035;-77
2022/04/22 02:53:23;;;;;;;3.65;1.95;;;;;;;;;;4968412;28;20039;-77
2022/04/22 02:55:50;;;;;;;2.05;1.85;;;;;;;;;;4952865;29;20023;-77
2022/04/22 02:58:16;;;;;;;2.70;1.75;;;;;;;;;;4952336;29;20477;-78
2022/04/22 03:00:42;;;;;;;1.63;1.52;;;;;;;;;;4952489;29;20023;-78
2022/04/22 03:03:07;;;;;;;2.53;1.70;;;;;;;;;;4968542;28;20043;-78
2022/04/22 03:05:34;;;;;;;2.47;1.73;;;;;;;;;;4952274;29;20117;-78
2022/04/22 03:08:00;;;;;;;2.00;1.60;;;;;;;;;;4936553;29;20516;-78
2022/04/22 03:10:26;;;;;;;2.88;1.70;;;;;;;;;;4952461;29;20104;-78
2022/04/22 03:12:51;;;;;;;2.67;1.70;;;;;;;;;;4952716;29;20035;-78
2022/04/22 03:15:17;;;;;;;3.53;1.88;;;;;;;;;;4936043;29;20105;-78
2022/04/22 03:17:42;;;;;;;2.45;1.70;;;;;;;;;;4936443;29;20027;-78
2022/04/22 03:20:09;;;;;;;2.40;1.92;;;;;;;;;;4920920;29;20118;-78
2022/04/22 03:22:36;;;;;;;2.38;1.80;;;;;;;;;;4936189;29;20203;-78
2022/04/22 03:25:02;;;;;;;1.65;1.40;;;;;;;;;;4952366;29;20073;-78
2022/04/22 03:27:27;;;;;;;2.10;1.70;;;;;;;;;;4936014;29;20031;-78
2022/04/22 03:29:53;;;;;;;3.13;1.80;;;;;;;;;;4935915;29;20119;-78
2022/04/22 03:32:18;;;;;;;2.97;1.65;;;;;;;;;;4936186;29;20035;-78
2022/04/22 03:34:43;;;;;;;3.13;1.80;;;;;;;;;;4952054;29;20027;-77
2022/04/22 03:37:09;;;;;;;1.83;1.60;;;;;;;;;;4953608;28;20126;-77
2022/04/22 03:39:34;;;;;;;2.53;1.92;;;;;;;;;;4967986;28;20047;-77
2022/04/22 03:42:01;;;;;;;2.63;1.70;;;;;;;;;;4936041;29;20571;-77
2022/04/22 03:44:26;;;;;;;1.98;1.65;;;;;;;;;;4939440;29;20054;-78
2022/04/22 03:46:52;;;;;;;3.10;1.67;;;;;;;;;;4939581;29;20455;-77
2022/04/22 03:49:17;;;;;;;2.20;1.63;;;;;;;;;;4955759;29;20086;-77
2022/04/22 03:51:43;;;;;;;3.10;1.92;;;;;;;;;;4939614;29;20041;-77
2022/04/22 03:54:08;;;;;;;1.75;1.60;;;;;;;;;;4955462;29;20027;-77
2022/04/22 03:59:17;;;;;;;2.75;1.90;;;;;;;;;;4956013;29;20081;-77
2022/04/22 04:01:44;;;;;;;2.05;1.85;;;;;;;;;;4939920;29;20078;-77
2022/04/22 04:04:10;;;;;;;2.17;1.70;;;;;;;;;;4972144;28;20034;-77
2022/04/22 04:06:35;;;;;;;2.30;1.85;;;;;;;;;;4923843;29;20031;-78
2022/04/22 04:17:09;;;;;;;5.43;1.98;;;;;;;;;;4956790;29;20035;-77
2022/04/22 04:25:03;;;;;;;2.95;2.17;;;;;;;;;;4956260;29;20141;-77
2022/04/22 04:27:29;;;;;;;4.20;2.47;;;;;;;;;;4956945;29;20540;-76
2022/04/22 04:29:55;;;;;;;3.78;2.20;;;;;;;;;;4956002;28;20031;-77
2022/04/22 04:32:20;;;;;;;2.85;1.98;;;;;;;;;;4956147;29;20479;-76
2022/04/22 04:34:46;;;;;;;3.38;1.90;;;;;;;;;;4958249;28;20031;-76
2022/04/22 04:37:12;;;;;;;3.42;2.00;;;;;;;;;;4972640;28;20035;-77
2022/04/22 04:39:38;;;;;;;4.72;1.80;;;;;;;;;;4956749;29;20122;-77
2022/04/22 04:42:04;;;;;;;2.20;1.92;;;;;;;;;;4957271;28;20058;-76
2022/04/22 04:44:29;;;;;;;2.55;2.08;;;;;;;;;;4955071;28;20039;-78
2022/04/22 04:46:55;;;;;;;3.20;1.85;;;;;;;;;;4939488;29;20094;-76
2022/04/22 04:49:21;;;;;;;4.60;2.03;;;;;;;;;;4956610;29;20090;-76
2022/04/22 04:51:46;;;;;;;3.67;2.10;;;;;;;;;;4955271;29;20035;-76
2022/04/22 04:54:12;;;;;;;2.97;2.17;;;;;;;;;;4938852;29;20031;-77
2022/04/22 04:56:37;;;;;;;3.38;1.90;;;;;;;;;;4971089;28;20032;-77
2022/04/22 04:59:02;;;;;;;3.30;2.30;;;;;;;;;;4939457;29;20031;-77
2022/04/22 05:01:28;;;;;;;13.20;2.17;;;;;;;;;;4955405;29;20126;-77
2022/04/22 05:03:53;;;;;;;3.17;1.92;;;;;;;;;;4972121;28;20118;-77
2022/04/22 05:06:19;;;;;;;1.80;1.70;;;;;;;;;;4939820;29;20027;-76
2022/04/22 05:08:45;;;;;;;3.72;2.25;;;;;;;;;;4956132;29;20042;-78
2022/04/22 05:11:10;;;;;;;6.95;2.22;;;;;;;;;;4955697;29;20031;-76
2022/04/22 05:13:36;;;;;;;2.60;1.98;;;;;;;;;;4955133;29;20110;-77
2022/04/22 05:16:02;;;;;;;3.53;2.20;;;;;;;;;;4957320;28;20034;-76
2022/04/22 05:18:27;;;;;;;2.80;2.10;;;;;;;;;;4956982;29;20035;-77
2022/04/22 05:20:52;;;;;;;5.25;2.40;;;;;;;;;;4939653;29;20045;-77
2022/04/22 05:23:18;;;;;;;3.10;2.03;;;;;;;;;;4956922;29;20043;-77
2022/04/22 05:25:43;;;;;;;3.60;2.15;;;;;;;;;;4955588;29;20031;-77
2022/04/22 05:28:08;;;;;;;4.15;2.47;;;;;;;;;;4955926;29;20050;-77
2022/04/22 05:33:18;;;;;;;8.98;3.45;;;;;;;;;;4957706;29;20141;-77
2022/04/22 05:35:43;;;;;;;3.45;2.60;;;;;;;;;;4940548;29;20031;-77
2022/04/22 05:38:09;;;;;;;4.50;2.90;;;;;;;;;;4939468;29;20487;-76
2022/04/22 05:40:38;;;;;;;4.50;2.80;;;;;;;;;;4957092;28;20042;-76
2022/04/22 05:43:05;;;;;;;4.75;2.53;;;;;;;;;;4955107;29;20036;-77
2022/04/22 05:45:32;;;;;;;6.13;3.53;;;;;;;;;;4955239;29;20082;-78
2022/04/22 05:47:57;;;;;;;6.43;3.88;;;;;;;;;;4955222;29;20031;-77
2022/04/22 05:50:24;;;;;;;2.92;2.58;;;;;;;;;;4955142;29;20485;-77
2022/04/22 05:52:50;;;;;;;6.50;3.20;;;;;;;;;;4938052;29;20091;-77
2022/04/22 05:55:18;;;;;;;6.10;3.63;;;;;;;;;;4953665;29;20149;-77
2022/04/22 05:57:46;;;;;;;4.75;2.97;;;;;;;;;;4969931;28;20075;-77
2022/04/22 06:00:13;;;;;;;5.70;3.25;;;;;;;;;;4954127;29;20469;-77
2022/04/22 06:02:41;;;;;;;4.25;2.67;;;;;;;;;;4953561;29;20067;-77
2022/04/22 06:05:07;;;;;;;5.38;2.90;;;;;;;;;;4953291;28;20109;-77
2022/04/22 06:07:33;;;;;;;5.90;3.30;;;;;;;;;;4938142;29;20027;-77
2022/04/22 06:12:42;;;;;;;6.32;4.35;;;;;;;;;;4953762;29;20074;-77
2022/04/22 06:15:08;;;;;;;5.65;3.47;;;;;;;;;;4953857;29;20071;-77
2022/04/22 06:17:33;;;;;;;6.18;4.13;;;;;;;;;;4953416;29;20019;-77
2022/04/22 06:19:59;;;;;;;4.45;3.33;;;;;;;;;;4953360;29;20457;-77
2022/04/22 06:22:25;;;;;;;11.20;4.15;;;;;;;;;;4953355;29;20031;-77
2022/04/22 06:24:51;;;;;;;6.68;3.70;;;;;;;;;;4953197;28;20023;-77
2022/04/22 06:27:27;;;;;;;7.07;4.43;;;;;;;;;;4953328;28;20363;-76
2022/04/22 06:29:54;;;;;;;6.20;3.58;;;;;;;;;;4954536;28;20027;-77
2022/04/22 06:32:26;;;;;;;5.88;4.00;;;;;;;;;;4937568;29;20046;-75
2022/04/22 06:34:52;;;;;;;6.13;3.88;;;;;;;;;;4954349;28;20031;-78
2022/04/22 06:37:18;;;;;;;7.18;3.80;;;;;;;;;;4953159;29;20031;-79
2022/04/22 06:47:57;;;;;;;15.88;5.07;;;;;;;;;;4939914;29;20042;-78
2022/04/22 06:50:23;;;;;;;18.42;6.35;;;;;;;;;;4952938;29;20378;-76
2022/04/22 06:52:48;;;;;;;21.98;6.82;;;;;;;;;;4952895;29;20035;-78
2022/04/22 06:55:15;;;;;;;21.55;6.18;;;;;;;;;;4953160;29;20495;-78
2022/04/22 06:57:40;;;;;;;23.33;5.90;;;;;;;;;;4953019;29;20031;-75
2022/04/22 07:00:10;;;;;;;16.42;6.45;;;;;;;;;;4952933;29;20035;-74
2022/04/22 07:02:36;;;;;;;15.85;5.40;;;;;;;;;;4953227;29;20023;-75
2022/04/22 07:05:02;;;;;;;13.27;5.13;;;;;;;;;;4952960;29;20070;-76
2022/04/22 07:07:28;;;;;;;16.83;5.10;;;;;;;;;;4953057;28;20090;-76
2022/04/22 07:09:53;;;;;;;14.75;4.93;;;;;;;;;;4937081;29;20374;-77
2022/04/22 07:12:19;;;;;;;11.88;4.28;;;;;;;;;;4952774;29;20062;-76
2022/04/22 07:14:45;;;;;;;16.70;4.65;;;;;;;;;;4954311;29;20132;-77
2022/04/22 07:17:12;;;;;;;12.73;4.90;;;;;;;;;;4935815;29;20058;-77
2022/04/22 07:19:37;;;;;;;8.13;4.10;;;;;;;;;;4952887;29;20051;-77
2022/04/22 07:22:03;;;;;;;7.93;4.25;;;;;;;;;;4952862;29;20035;-78
2022/04/22 07:24:29;;;;;;;13.07;4.45;;;;;;;;;;4954266;28;20386;-78
2022/04/22 07:26:55;;;;;;;13.30;4.07;;;;;;;;;;4968905;28;20078;-78
2022/04/22 07:29:23;;;;;;;13.75;3.83;;;;;;;;;;4952313;28;20052;-78
2022/04/22 07:31:48;;;;;;;9.00;3.80;;;;;;;;;;4954170;29;20047;-76
2022/04/22 07:34:14;;;;;;;10.50;3.70;;;;;;;;;;4968683;28;20126;-78
2022/04/22 07:36:39;;;;;;;8.70;3.28;;;;;;;;;;4954347;29;20039;-77
2022/04/22 07:39:05;;;;;;;8.52;3.00;;;;;;;;;;4952704;29;20598;-79
2022/04/22 07:41:31;;;;;;;10.05;3.25;;;;;;;;;;4953957;29;20035;-78
2022/04/22 07:46:47;;;;;;;8.65;3.80;;;;;;;;;;4952224;29;20053;-75
2022/04/22 07:49:12;;;;;;;9.27;3.80;;;;;;;;;;4968419;28;20127;-75
2022/04/22 07:51:40;;;;;;;8.63;3.38;;;;;;;;;;4936180;29;20207;-74
2022/04/22 07:54:05;;;;;;;6.32;3.40;;;;;;;;;;4937136;28;20027;-75
2022/04/22 07:56:31;;;;;;;6.45;3.60;;;;;;;;;;4953732;29;20028;-76
2022/04/22 07:58:56;;;;;;;9.65;3.60;;;;;;;;;;4968269;28;20027;-77
2022/04/22 08:01:22;;;;;;;4.85;3.08;;;;;;;;;;4936444;28;20094;-77
2022/04/22 08:03:48;;;;;;;6.78;3.42;;;;;;;;;;4953623;28;20031;-77
2022/04/22 08:06:13;;;;;;;6.25;3.22;;;;;;;;;;4968289;28;20050;-77
2022/04/22 08:08:39;;;;;;;6.32;3.72;;;;;;;;;;4954006;29;20035;-79
2022/04/22 08:11:04;;;;;;;8.70;3.42;;;;;;;;;;4936413;29;20031;-78
2022/04/22 08:13:31;;;;;;;8.82;3.63;;;;;;;;;;4952164;29;20027;-76
2022/04/22 08:15:56;;;;;;;8.77;3.67;;;;;;;;;;4952004;28;20059;-75
2022/04/22 08:18:22;;;;;;;6.30;4.25;;;;;;;;;;4952272;29;20073;-76
2022/04/22 08:20:48;;;;;;;8.25;3.25;;;;;;;;;;4936078;29;20083;-75
2022/04/22 08:23:14;;;;;;;4.75;3.80;;;;;;;;;;4951945;29;20058;-75
2022/04/22 08:25:39;;;;;;;5.30;3.20;;;;;;;;;;4935719;29;20393;-75
2022/04/22 08:28:05;;;;;;;4.72;3.55;;;;;;;;;;4936622;29;20031;-75
2022/04/22 08:30:30;;;;;;;5.47;3.10;;;;;;;;;;4955215;28;20080;-76
2022/04/22 08:32:56;;;;;;;6.45;3.30;;;;;;;;;;4956845;29;20082;-75
2022/04/22 08:35:22;;;;;;;4.78;2.95;;;;;;;;;;4955211;29;20126;-74
2022/04/22 08:37:47;;;;;;;6.72;3.03;;;;;;;;;;4955670;29;20034;-75
2022/04/22 08:40:14;;;;;;;5.57;3.63;;;;;;;;;;4955341;29;20367;-74
2022/04/22 08:42:41;;;;;;;5.20;3.25;;;;;;;;;;4956661;28;20027;-75
2022/04/22 08:45:07;;;;;;;5.43;3.08;;;;;;;;;;4954824;29;20193;-75
2022/04/22 08:50:17;;;;;;;;;;;;;;;;;;4955881;29;20167;-75
2022/04/22 08:52:43;;;;;;;6.23;3.03;;;;;;;;;;4956717;29;20361;-75
2022/04/22 08:55:10;;;;;;;5.28;3.20;;;;;;;;;;4954909;29;20269;-75
2022/04/22 08:57:36;;;;;;;4.28;3.33;;;;;;;;;;4956255;28;20066;-75
2022/04/22 09:00:07;;;;;;;5.03;3.17;;;;;;;;;;4956436;28;20027;-74
2022/04/22 09:02:33;;;;;;;4.53;3.10;;;;;;;;;;4955365;29;20031;-74
2022/04/22 09:04:58;;;;;;;5.03;3.13;;;;;;;;;;4954807;29;20161;-74
2022/04/22 09:07:28;;;;;;;3.88;3.00;;;;;;;;;;4955981;29;20087;-75
2022/04/22 09:09:53;;;;;;;6.18;3.30;;;;;;;;;;4955057;29;20049;-75
2022/04/22 09:12:24;;;;;;;6.10;3.05;;;;;;;;;;4954822;29;20109;-74
2022/04/22 09:14:52;;;;;;;5.55;3.47;;;;;;;;;;4938919;29;20028;-74
2022/04/22 09:17:24;;;;;;;3.80;3.13;;;;;;;;;;4954541;29;20504;-74
2022/04/22 09:19:51;;;;;;;7.18;3.10;;;;;;;;;;4954621;29;20035;-74
2022/04/22 09:22:30;;;;;;;5.80;2.90;;;;;;;;;;4954865;29;20041;-74
2022/04/22 09:24:57;;;;;;;4.88;3.17;;;;;;;;;;4938707;29;20371;-74
2022/04/22 09:27:32;;;;;;;4.22;2.78;;;;;;;;;;4954608;29;20047;-75
2022/04/22 09:29:59;;;;;;;5.15;2.65;;;;;;;;;;4954521;28;20339;-74
2022/04/22 09:32:26;;;;;;;3.88;2.85;;;;;;;;;;4938604;29;20090;-74
2022/04/22 09:34:52;;;;;;;5.38;2.65;;;;;;;;;;4954374;29;20027;-75
2022/04/22 09:42:49;;;;;;;3.95;2.88;;;;;;;;;;4955243;29;20034;-76
2022/04/22 09:45:15;;;;;;;15.90;6.20;;;;;;;;;;4953833;29;20422;-74
2022/04/22 09:47:41;;;;;;;14.70;5.65;;;;;;;;;;4955161;28;20039;-75
2022/04/22 09:50:11;;;;;;;16.25;5.05;;;;;;;;;;4953980;29;20033;-74
2022/04/22 09:52:43;;;;;;;20.88;5.45;;;;;;;;;;4954112;28;20046;-75
2022/04/22 09:55:10;;;;;;;11.65;4.63;;;;;;;;;;4953688;29;20027;-72
2022/04/22 09:57:58;;;;;;;9.65;4.78;;;;;;;;;;4953696;28;20429;-72
2022/04/22 10:00:25;;;;;;;10.82;4.50;;;;;;;;;;4969648;28;20410;-75
2022/04/22 10:02:52;;;;;;;10.32;4.00;;;;;;;;;;4938657;29;20106;-75
2022/04/22 10:05:22;;;;;;;6.90;3.50;;;;;;;;;;4969712;28;20340;-76
2022/04/22 10:07:52;;;;;;;11.57;3.83;;;;;;;;;;4953386;29;20054;-75
2022/04/22 10:10:19;;;;;;;9.00;3.60;;;;;;;;;;4953582;29;20351;-75
2022/04/22 10:12:47;;;;;;;8.02;3.20;;;;;;;;;;4953532;29;20084;-75
2022/04/22 10:15:12;;;;;;;8.02;3.40;;;;;;;;;;4953360;29;20394;-75
2022/04/22 10:17:39;;;;;;;7.97;3.38;;;;;;;;;;4937635;29;20130;-74
2022/04/22 10:20:06;;;;;;;5.85;3.15;;;;;;;;;;4954553;28;20031;-76
2022/04/22 10:22:33;;;;;;;7.13;3.28;;;;;;;;;;4954465;28;20474;-74
2022/04/22 10:25:02;;;;;;;4.50;2.85;;;;;;;;;;4937811;29;20101;-75
2022/04/22 10:27:32;;;;;;;4.93;2.67;;;;;;;;;;4953485;29;20031;-75
2022/04/22 10:29:59;;;;;;;3.55;2.15;;;;;;;;;;4953472;28;20430;-75
2022/04/22 10:32:24;;;;;;;6.65;2.75;;;;;;;;;;4953162;29;20397;-76
2022/04/22 10:34:57;;;;;;;3.95;2.53;;;;;;;;;;4954627;29;20031;-74
2022/04/22 10:37:27;;;;;;;4.50;2.70;;;;;;;;;;4953315;29;20031;-75
2022/04/22 10:39:54;;;;;;;3.65;2.22;;;;;;;;;;4937300;29;20114;-75
2022/04/22 10:42:37;;;;;;;4.88;2.40;;;;;;;;;;4953093;28;20027;-76
2022/04/22 10:47:53;;;;;;;6.22;2.10;;;;;;;;;;4954198;29;20124;-74
2022/04/22 10:50:42;;;;;;;7.40;2.50;;;;;;;;;;4936885;29;20027;-75
2022/04/22 10:53:24;;;;;;;3.50;2.10;;;;;;;;;;4954011;29;20075;-75
2022/04/22 10:55:51;;;;;;;3.75;2.03;;;;;;;;;;4952876;29;20474;-75
2022/04/22 10:58:21;;;;;;;3.05;2.08;;;;;;;;;;4937362;29;20038;-75
2022/04/22 11:00:54;;;;;;;3.50;1.80;;;;;;;;;;4954002;29;20031;-74
2022/04/22 11:03:21;;;;;;;2.90;1.90;;;;;;;;;;4953171;28;20027;-74
2022/04/22 11:05:48;;;;;;;3.53;1.58;;;;;;;;;;4954611;28;20024;-75
2022/04/22 11:08:19;;;;;;;4.40;1.90;;;;;;;;;;4953219;29;20031;-77
2022/04/22 11:10:48;;;;;;;3.10;2.00;;;;;;;;;;4953356;29;20418;-75
2022/04/22 11:13:33;;;;;;;2.63;1.58;;;;;;;;;;4952963;29;20114;-75
2022/04/22 11:16:26;;;;;;;3.03;1.73;;;;;;;;;;4953341;29;20118;-75
2022/04/22 11:19:11;;;;;;;2.72;1.80;;;;;;;;;;4953055;29;20023;-75
2022/04/22 11:21:36;;;;;;;1.77;1.50;;;;;;;;;;4969007;28;20027;-75
2022/04/22 11:24:09;;;;;;;2.45;1.42;;;;;;;;;;4953100;29;20102;-75
2022/04/22 11:26:35;;;;;;;2.42;1.58;;;;;;;;;;4953049;28;20458;-75
2022/04/22 11:29:04;;;;;;;2.78;1.48;;;;;;;;;;4952789;28;20042;-75
2022/04/22 11:31:30;;;;;;;1.83;1.58;;;;;;;;;;4952814;29;20041;-75
2022/04/22 11:33:56;;;;;;;3.42;1.60;;;;;;;;;;4936792;28;20031;-75
2022/04/22 11:36:26;;;;;;;1.70;1.60;;;;;;;;;;4936995;29;20057;-74
2022/04/22 11:38:52;;;;;;;1.90;1.35;;;;;;;;;;4954358;28;20346;-74
2022/04/22 11:41:18;;;;;;;2.97;1.60;;;;;;;;;;4953205;28;20024;-75
2022/04/22 11:43:46;;;;;;;3.80;1.83;;;;;;;;;;4936621;29;20038;-74
2022/04/22 11:46:12;;;;;;;2.42;1.52;;;;;;;;;;4952463;29;20098;-75
2022/04/22 11:48:53;;;;;;;2.33;1.70;;;;;;;;;;4952750;29;20023;-76
2022/04/22 11:51:19;;;;;;;4.82;2.00;;;;;;;;;;4953055;29;20059;-75
2022/04/22 11:53:46;;;;;;;2.30;1.77;;;;;;;;;;4936869;29;20027;-75
2022/04/22 11:56:16;;;;;;;3.20;1.40;;;;;;;;;;4953019;29;20027;-77
2022/04/22 11:58:41;;;;;;;5.70;1.58;;;;;;;;;;4953030;29;20028;-75
2022/04/22 12:06:38;;;;;;;2.15;1.58;;;;;;;;;;4957933;29;20408;-75
2022/04/22 12:09:05;;;;;;;3.70;1.55;;;;;;;;;;4956118;29;20470;-75
2022/04/22 12:11:38;;;;;;;3.88;1.80;;;;;;;;;;4956440;28;20428;-75
2022/04/22 12:14:03;;;;;;;1.63;1.50;;;;;;;;;;4956699;29;20438;-75
2022/04/22 12:16:29;;;;;;;1.52;1.42;;;;;;;;;;4957497;28;20114;-75
2022/04/22 12:18:55;;;;;;;3.05;1.50;;;;;;;;;;4957490;28;20113;-75
2022/04/22 12:21:23;;;;;;;2.28;1.83;;;;;;;;;;4941359;29;20035;-75
2022/04/22 12:23:50;;;;;;;1.65;1.40;;;;;;;;;;4955987;29;20031;-75
2022/04/22 12:26:23;;;;;;;2.45;1.92;;;;;;;;;;4955784;29;20463;-75
2022/04/22 12:28:58;;;;;;;1.55;1.40;;;;;;;;;;4955945;28;20082;-75
2022/04/22 12:31:25;;;;;;;2.05;1.50;;;;;;;;;;4957286;29;20038;-75
2022/04/22 12:34:00;;;;;;;1.60;1.50;;;;;;;;;;4960197;29;20027;-74
2022/04/22 12:36:26;;;;;;;1.58;1.48;;;;;;;;;;4956657;29;20521;-75
2022/04/22 12:38:52;;;;;;;1.75;1.45;;;;;;;;;;4957618;29;20505;-74
2022/04/22 12:41:18;;;;;;;1.48;1.38;;;;;;;;;;4956185;29;20079;-76
2022/04/22 12:43:48;;;;;;;3.15;1.50;;;;;;;;;;4955343;29;20035;-74
2022/04/22 12:52:12;;;;;;;1.60;1.50;;;;;;;;;;4955731;29;20097;-75
2022/04/22 12:54:42;;;;;;;1.73;1.40;;;;;;;;;;4955402;29;20134;-74
2022/04/22 12:57:24;;;;;;;3.55;1.70;;;;;;;;;;4955106;28;20036;-74
2022/04/22 12:59:54;;;;;;;6.32;1.67;;;;;;;;;;4957112;28;20031;-74
2022/04/22 13:02:34;;;;;;;3.58;1.40;;;;;;;;;;4955425;28;20519;-74
2022/04/22 13:05:05;;;;;;;4.35;1.58;;;;;;;;;;4955756;29;20042;-75
2022/04/22 13:07:45;;;;;;;1.85;1.55;;;;;;;;;;4955620;28;20036;-75
2022/04/22 13:10:14;;;;;;;8.48;1.70;;;;;;;;;;4956663;29;20054;-76
2022/04/22 13:12:41;;;;;;;1.50;1.40;;;;;;;;;;4955812;29;20110;-76
2022/04/22 13:15:09;;;;;;;3.50;1.58;;;;;;;;;;4954008;28;20126;-75
2022/04/22 13:17:38;;;;;;;1.92;1.45;;;;;;;;;;4939335;29;20030;-75
2022/04/22 13:20:04;;;;;;;1.65;1.38;;;;;;;;;;4956056;29;20049;-76
2022/04/22 13:22:30;;;;;;;2.00;1.58;;;;;;;;;;4971155;28;20405;-76
2022/04/22 13:24:55;;;;;;;2.05;1.58;;;;;;;;;;4954916;29;20032;-75
2022/04/22 13:27:21;;;;;;;1.90;1.50;;;;;;;;;;4954975;29;20647;-73
2022/04/22 13:29:46;;;;;;;4.93;1.60;;;;;;;;;;4970639;28;20370;-74
2022/04/22 13:32:11;;;;;;;1.75;1.20;;;;;;;;;;4971111;28;20035;-74
2022/04/22 13:34:37;;;;;;;1.98;1.25;;;;;;;;;;4955917;29;20031;-75
2022/04/22 13:37:03;;;;;;;1.63;1.25;;;;;;;;;;4955262;29;20027;-75
2022/04/22 13:39:28;;;;;;;1.95;1.33;;;;;;;;;;4956184;28;20465;-75
2022/04/22 13:41:54;;;;;;;2.58;1.50;;;;;;;;;;4955596;28;20035;-75
2022/04/22 13:52:21;;;;;;;1.45;1.35;;;;;;;;;;4970916;28;20039;-75
2022/04/22 13:52:32;;;;;;;2.90;1.27;;;;;;;;;;4955941;29;19932;-76
2022/04/22 13:54:58;;;;;;;1.63;1.23;;;;;;;;;;4954498;29;20465;-75
2022/04/22 13:57:23;;;;;;;6.53;1.50;;;;;;;;;;4955660;29;20027;-73
2022/04/22 13:59:48;;;;;;;2.17;1.50;;;;;;;;;;4954287;29;20035;-74
2022/04/22 14:02:14;;;;;;;2.58;1.23;;;;;;;;;;4970342;28;20046;-74
2022/04/22 14:04:41;;;;;;;3.85;1.33;;;;;;;;;;4955678;28;20031;-74
2022/04/22 14:07:06;;;;;;;1.83;1.48;;;;;;;;;;4938376;29;20122;-74
2022/04/22 14:09:35;;;;;;;3.88;1.70;;;;;;;;;;4969945;28;20482;-73
2022/04/22 14:12:02;;;;;;;2.22;1.70;;;;;;;;;;4954145;29;20035;-73
2022/04/22 14:14:28;;;;;;;2.38;1.52;;;;;;;;;;4955298;29;20423;-75
2022/04/22 14:16:53;;;;;;;1.48;1.38;;;;;;;;;;4955655;28;20029;-75
2022/04/22 14:19:19;;;;;;;2.30;1.70;;;;;;;;;;4954280;29;20035;-76
2022/04/22 14:21:45;;;;;;;3.30;1.67;;;;;;;;;;4955917;28;20426;-75
2022/04/22 14:24:10;;;;;;;2.40;1.38;;;;;;;;;;4954196;29;20042;-75
2022/04/22 14:26:36;;;;;;;3.50;1.60;;;;;;;;;;4955007;28;20419;-74
2022/04/22 14:29:02;;;;;;;1.92;1.42;;;;;;;;;;4955207;28;20038;-75
2022/04/22 14:31:28;;;;;;;5.60;2.15;;;;;;;;;;4954163;28;20093;-74
2022/04/22 14:33:54;;;;;;;1.92;1.50;;;;;;;;;;4953704;29;20043;-74
2022/04/22 14:36:20;;;;;;;3.97;1.50;;;;;;;;;;4953723;29;20046;-74
2022/04/22 14:38:47;;;;;;;2.42;1.70;;;;;;;;;;4955391;28;20049;-74
2022/04/22 14:41:13;;;;;;;2.20;1.58;;;;;;;;;;4954507;29;20530;-74
2022/04/22 14:43:38;;;;;;;2.80;1.50;;;;;;;;;;4937871;29;20130;-75
2022/04/22 14:46:05;;;;;;;1.83;1.65;;;;;;;;;;4954434;28;20126;-74
2022/04/22 14:48:30;;;;;;;4.93;1.65;;;;;;;;;;4969562;28;20042;-75
2022/04/22 14:50:55;;;;;;;3.00;1.80;;;;;;;;;;4969164;28;20046;-75
2022/04/22 14:53:21;;;;;;;3.45;1.50;;;;;;;;;;4954612;28;20035;-75
2022/04/22 14:55:46;;;;;;;2.05;1.80;;;;;;;;;;4953170;29;20035;-75
2022/04/22 14:58:12;;;;;;;1.67;1.58;;;;;;;;;;4954324;29;20039;-75
2022/04/22 15:00:37;;;;;;;1.70;1.60;;;;;;;;;;4954221;29;20117;-75
2022/04/22 15:03:02;;;;;;;3.45;2.00;;;;;;;;;;4953281;29;20452;-75
2022/04/22 15:05:29;;;;;;;3.80;1.80;;;;;;;;;;4954210;29;20051;-74
2022/04/22 15:07:55;;;;;;;3.42;1.98;;;;;;;;;;4952892;29;20068;-74
2022/04/22 15:10:20;;;;;;;4.07;2.17;;;;;;;;;;4952959;29;20153;-76
2022/04/22 15:12:46;;;;;;;1.90;1.70;;;;;;;;;;4953967;29;20094;-74
2022/04/22 15:15:13;;;;;;;2.50;2.10;;;;;;;;;;4953199;29;20031;-74
2022/04/22 15:25:50;;;;;;;3.88;2.00;;;;;;;;;;4953054;29;20038;-73
2022/04/22 15:28:17;;;;;;;6.47;2.00;;;;;;;;;;4953948;29;20023;-74
2022/04/22 15:31:08;;;;;;;3.22;2.03;;;;;;;;;;4952669;28;20035;-73
2022/04/22 15:33:34;;;;;;;2.72;2.22;;;;;;;;;;4953452;29;20027;-74
2022/04/22 15:36:01;;;;;;;4.30;2.40;;;;;;;;;;4952533;28;20383;-73
2022/04/22 15:38:29;;;;;;;3.25;2.20;;;;;;;;;;4938007;29;20035;-73
2022/04/22 15:40:54;;;;;;;3.75;2.30;;;;;;;;;;4940609;29;20038;-74
2022/04/22 15:43:20;;;;;;;5.63;2.10;;;;;;;;;;4956403;29;20442;-75
2022/04/22 15:45:45;;;;;;;2.40;2.00;;;;;;;;;;4956291;29;20448;-74
2022/04/22 15:48:11;;;;;;;4.35;2.00;;;;;;;;;;4956175;29;20043;-75
2022/04/22 15:50:36;;;;;;;3.35;2.25;;;;;;;;;;4957458;29;20492;-74
2022/04/22 15:53:01;;;;;;;2.92;1.85;;;;;;;;;;4956263;29;20027;-75
2022/04/22 15:55:27;;;;;;;3.75;2.15;;;;;;;;;;4957484;29;20027;-75
2022/04/22 15:57:53;;;;;;;6.13;2.20;;;;;;;;;;4957366;29;20031;-77
2022/04/22 16:00:18;;;;;;;2.55;2.00;;;;;;;;;;4956388;29;20035;-78
2022/04/22 16:02:44;;;;;;;2.17;1.95;;;;;;;;;;4955920;29;20035;-76